Terminal Aerodrome Forecast
Issued by NWS

Home | Current Version | Previous Version | Text Only | Print | Product List | Glossary On
Versions: 1 2 3 4 5 6 7 8 9 10 11 12 13 14 15 16 17 18 19
000
FTUS41 KCAR 242334
TAFBHB
TAF
KBHB 242334Z 2500/2524 32009KT P6SM BKN200
     FM250300 03006KT P6SM SKC
     FM251500 11013KT P6SM -SN OVC070
     FM251700 13015KT 4SM -SN OVC025
     FM252000 13015KT 3/4SM -SN SCT007 OVC015=

USA.gov is the U.S. government's official web portal to all federal, state and local government web resources and services.